Warroad, MN

19:34 CDT le 24 octobre 2014 (GMT -0500)
Warroad International-Carlson | Change Station
CLOSE
Current Station
Aéroport
Location: Warroad,
Altitude: 1073 ft
Stations météo à proximité

Alt. 1073 ft 48.94 °N, 95.35 °W | Updated 20 minutes ago

Ciel dégagé
Ciel dégagé
63 ° F
Paraît 63 ° F
N
16
Vent Variable Vent de Ouest
Gusts 25 mph

Aujourd'hui
Haut(e) -- | Bas -- ° F
--% Risque de précip.
Hier
Haut(e) -- | Bas -- ° F
Precip. -- pouce
7:55 AM 6:14 PM
Nouvelle lune, 1% visible
Pression 29.71 pouce
Visibilité 10.0 Miles terrestres
Nuages Ciel dégagé
Point de rosée 37 ° F
Humidité 39%
Précipitations 0.00 pouce
Profondeur de la couche neigeuse Non disponible.
UV 0 sur 12
Pollen 1.60 sur 12
Qualité de l'air Non disponible.
Flu Activity Sporadic
METAR KRRT 250014Z AUTO 27014G22KT 10SM CLR 17/03 A2971 RMK AO2

More Conditions Fewer Conditions

Pression 29.71 pouce
Visibilité 10.0 Miles terrestres
Nuages Ciel dégagé
Point de rosée 37 ° F
Humidité 39%
Précipitations 0.00 pouce
Profondeur de la couche neigeuse Non disponible.
UV 0 sur 12
Pollen 1.60 sur 12
Qualité de l'air Non disponible.
Flu Activity Sporadic
METAR KRRT 250014Z AUTO 27014G22KT 10SM CLR 17/03 A2971 RMK AO2

More Conditions Fewer Conditions

10-Day Weather Forecast

Almanac

Astronomie

Oct. 24, 2014 Lever Coucher
Temps réel 07:55 CDT 18:14 CDT
Crépuscule civil 07:23 CDT 18:46 CDT
Crépuscule nautique 06:46 CDT 19:23 CDT
Crépuscule astronomique 06:09 CDT 20:00 CDT
Lune 08:38 CDT (10/24) 18:50 CDT (10/24)
Durée de lumière visible 11h 23m
Longueur du jour
10h 18m
Tomorrow will be 3m 22s shorter.
Nouvelle lune, 1% of the Moon is Illuminated
Aujourd'hui
Nouvelle lune
Oct 30
Premier quartier
Nov 6
Pleine lune
Nov 14
Dernier quartier
Nov 22
Nouveau

Extrêmes aujourd'hui

State Highs State Lows

Community

WunderPhotos

Upload Photos

1,764,727 Photos téléchargées !

WunderBlogs® & News

Nearby

Épaisseur de neige

Station Depth Altitude
Pas de nouvelles chutes de neige

Activité sismique

Ville Distance Mag. Time & Date
No recent earthquake activity has been reported nearby.
Minimum magnitude displayed is 2.5.

Températures des eaux côtières

Lieu Température
Aucun rapport de station

Stations météo à proximité